sensor_id;sensor_type;location;lat;lon;timestamp;P1;durP1;ratioP1;P2;durP2;ratioP2
22939;SDS011;11636;52.086;5.090;2022-12-29T00:00:41;5.03;;;3.10;;
22939;SDS011;11636;52.086;5.090;2022-12-29T00:03:14;5.00;;;3.45;;
22939;SDS011;11636;52.086;5.090;2022-12-29T00:05:43;4.40;;;3.05;;
22939;SDS011;11636;52.086;5.090;2022-12-29T00:08:10;5.13;;;2.90;;
22939;SDS011;11636;52.086;5.090;2022-12-29T00:10:43;4.55;;;2.70;;
22939;SDS011;11636;52.086;5.090;2022-12-29T00:13:10;4.78;;;2.85;;
22939;SDS011;11636;52.086;5.090;2022-12-29T00:16:03;4.13;;;2.35;;
22939;SDS011;11636;52.086;5.090;2022-12-29T00:18:33;4.40;;;2.42;;
22939;SDS011;11636;52.086;5.090;2022-12-29T00:21:00;5.47;;;2.70;;
22939;SDS011;11636;52.086;5.090;2022-12-29T00:23:52;4.10;;;2.70;;
22939;SDS011;11636;52.086;5.090;2022-12-29T00:26:38;3.83;;;2.38;;
22939;SDS011;11636;52.086;5.090;2022-12-29T00:29:30;5.88;;;2.35;;
22939;SDS011;11636;52.086;5.090;2022-12-29T00:32:16;3.47;;;2.38;;
22939;SDS011;11636;52.086;5.090;2022-12-29T00:35:09;3.00;;;2.17;;
22939;SDS011;11636;52.086;5.090;2022-12-29T00:37:41;4.10;;;2.33;;
22939;SDS011;11636;52.086;5.090;2022-12-29T00:40:35;3.70;;;2.20;;
22939;SDS011;11636;52.086;5.090;2022-12-29T00:43:20;4.55;;;2.58;;
22939;SDS011;11636;52.086;5.090;2022-12-29T00:46:15;4.47;;;2.40;;
22939;SDS011;11636;52.086;5.090;2022-12-29T00:48:48;3.47;;;1.85;;
22939;SDS011;11636;52.086;5.090;2022-12-29T00:51:34;4.80;;;2.10;;
22939;SDS011;11636;52.086;5.090;2022-12-29T00:54:09;5.10;;;2.05;;
22939;SDS011;11636;52.086;5.090;2022-12-29T00:56:36;3.85;;;1.88;;
22939;SDS011;11636;52.086;5.090;2022-12-29T00:59:05;3.65;;;1.63;;
22939;SDS011;11636;52.086;5.090;2022-12-29T01:01:40;5.07;;;1.75;;
22939;SDS011;11636;52.086;5.090;2022-12-29T01:04:09;3.55;;;1.45;;
22939;SDS011;11636;52.086;5.090;2022-12-29T01:06:37;4.43;;;1.60;;
22939;SDS011;11636;52.086;5.090;2022-12-29T01:09:12;2.70;;;1.55;;
22939;SDS011;11636;52.086;5.090;2022-12-29T01:11:59;2.85;;;1.70;;
22939;SDS011;11636;52.086;5.090;2022-12-29T01:14:34;3.25;;;1.42;;
22939;SDS011;11636;52.086;5.090;2022-12-29T01:17:02;3.42;;;1.75;;
22939;SDS011;11636;52.086;5.090;2022-12-29T01:19:30;3.22;;;1.35;;
22939;SDS011;11636;52.086;5.090;2022-12-29T01:22:09;4.45;;;1.30;;
22939;SDS011;11636;52.086;5.090;2022-12-29T01:24:38;6.35;;;1.75;;
22939;SDS011;11636;52.086;5.090;2022-12-29T01:27:11;3.03;;;1.60;;
22939;SDS011;11636;52.086;5.090;2022-12-29T01:29:39;4.18;;;1.58;;
22939;SDS011;11636;52.086;5.090;2022-12-29T01:32:10;4.45;;;1.52;;
22939;SDS011;11636;52.086;5.090;2022-12-29T01:34:44;3.10;;;1.67;;
22939;SDS011;11636;52.086;5.090;2022-12-29T01:37:17;4.95;;;1.75;;
22939;SDS011;11636;52.086;5.090;2022-12-29T01:39:51;4.70;;;1.75;;
22939;SDS011;11636;52.086;5.090;2022-12-29T01:42:25;5.50;;;1.60;;
22939;SDS011;11636;52.086;5.090;2022-12-29T01:44:53;4.60;;;1.85;;
22939;SDS011;11636;52.086;5.090;2022-12-29T01:47:35;4.53;;;1.90;;
22939;SDS011;11636;52.086;5.090;2022-12-29T01:53:00;3.17;;;1.95;;
22939;SDS011;11636;52.086;5.090;2022-12-29T01:55:33;3.65;;;2.00;;
22939;SDS011;11636;52.086;5.090;2022-12-29T01:58:11;3.78;;;1.55;;
22939;SDS011;11636;52.086;5.090;2022-12-29T02:00:39;3.25;;;1.80;;
22939;SDS011;11636;52.086;5.090;2022-12-29T02:03:13;3.58;;;1.50;;
22939;SDS011;11636;52.086;5.090;2022-12-29T02:08:43;4.75;;;2.00;;
22939;SDS011;11636;52.086;5.090;2022-12-29T02:11:19;3.28;;;1.60;;
22939;SDS011;11636;52.086;5.090;2022-12-29T02:13:56;5.20;;;1.88;;
22939;SDS011;11636;52.086;5.090;2022-12-29T02:34:04;4.80;;;1.30;;
22939;SDS011;11636;52.086;5.090;2022-12-29T02:42:48;5.28;;;1.00;;
22939;SDS011;11636;52.086;5.090;2022-12-29T02:45:39;3.38;;;0.95;;
22939;SDS011;11636;52.086;5.090;2022-12-29T02:51:27;5.93;;;0.90;;
22939;SDS011;11636;52.086;5.090;2022-12-29T02:53:59;4.57;;;1.00;;
22939;SDS011;11636;52.086;5.090;2022-12-29T02:56:52;5.82;;;0.93;;
22939;SDS011;11636;52.086;5.090;2022-12-29T02:59:19;6.82;;;1.20;;
22939;SDS011;11636;52.086;5.090;2022-12-29T03:12:59;4.82;;;0.93;;
22939;SDS011;11636;52.086;5.090;2022-12-29T03:21:12;3.05;;;0.65;;
22939;SDS011;11636;52.086;5.090;2022-12-29T03:24:17;4.00;;;0.70;;
22939;SDS011;11636;52.086;5.090;2022-12-29T03:26:47;4.85;;;0.70;;
22939;SDS011;11636;52.086;5.090;2022-12-29T03:29:18;4.60;;;1.00;;
22939;SDS011;11636;52.086;5.090;2022-12-29T03:31:53;4.15;;;0.90;;
22939;SDS011;11636;52.086;5.090;2022-12-29T03:34:24;2.97;;;0.90;;
22939;SDS011;11636;52.086;5.090;2022-12-29T03:37:00;4.93;;;0.85;;
22939;SDS011;11636;52.086;5.090;2022-12-29T03:39:45;4.13;;;0.75;;
22939;SDS011;11636;52.086;5.090;2022-12-29T03:42:16;3.85;;;0.77;;
22939;SDS011;11636;52.086;5.090;2022-12-29T03:44:54;5.38;;;0.90;;
22939;SDS011;11636;52.086;5.090;2022-12-29T03:47:29;4.63;;;0.95;;
22939;SDS011;11636;52.086;5.090;2022-12-29T03:50:02;3.30;;;0.98;;
22939;SDS011;11636;52.086;5.090;2022-12-29T03:52:29;7.72;;;1.10;;
22939;SDS011;11636;52.086;5.090;2022-12-29T03:55:02;4.47;;;0.80;;
22939;SDS011;11636;52.086;5.090;2022-12-29T03:57:29;3.28;;;0.63;;
22939;SDS011;11636;52.086;5.090;2022-12-29T03:59:56;5.25;;;0.80;;
22939;SDS011;11636;52.086;5.090;2022-12-29T04:02:29;5.70;;;0.90;;
22939;SDS011;11636;52.086;5.090;2022-12-29T04:04:56;4.75;;;1.02;;
22939;SDS011;11636;52.086;5.090;2022-12-29T04:07:23;6.38;;;1.20;;
22939;SDS011;11636;52.086;5.090;2022-12-29T04:09:57;5.70;;;1.10;;
22939;SDS011;11636;52.086;5.090;2022-12-29T04:12:23;5.53;;;0.95;;
22939;SDS011;11636;52.086;5.090;2022-12-29T04:14:50;7.15;;;1.55;;
22939;SDS011;11636;52.086;5.090;2022-12-29T04:17:24;7.85;;;1.30;;
22939;SDS011;11636;52.086;5.090;2022-12-29T04:19:51;4.57;;;1.27;;
22939;SDS011;11636;52.086;5.090;2022-12-29T04:22:17;6.38;;;1.40;;
22939;SDS011;11636;52.086;5.090;2022-12-29T04:24:51;7.18;;;1.38;;
22939;SDS011;11636;52.086;5.090;2022-12-29T04:27:18;10.30;;;1.42;;
22939;SDS011;11636;52.086;5.090;2022-12-29T04:29:51;11.00;;;1.30;;
22939;SDS011;11636;52.086;5.090;2022-12-29T04:32:24;6.47;;;1.45;;
22939;SDS011;11636;52.086;5.090;2022-12-29T04:34:50;6.38;;;1.27;;
22939;SDS011;11636;52.086;5.090;2022-12-29T04:37:24;6.70;;;1.17;;
22939;SDS011;11636;52.086;5.090;2022-12-29T04:39:50;9.45;;;1.73;;
22939;SDS011;11636;52.086;5.090;2022-12-29T04:42:29;4.70;;;1.10;;
22939;SDS011;11636;52.086;5.090;2022-12-29T04:44:56;15.27;;;1.80;;
22939;SDS011;11636;52.086;5.090;2022-12-29T04:47:42;8.05;;;1.98;;
22939;SDS011;11636;52.086;5.090;2022-12-29T04:50:09;6.20;;;1.20;;
22939;SDS011;11636;52.086;5.090;2022-12-29T04:52:35;7.63;;;1.00;;
22939;SDS011;11636;52.086;5.090;2022-12-29T04:55:09;7.35;;;1.25;;
22939;SDS011;11636;52.086;5.090;2022-12-29T04:57:36;9.63;;;1.50;;
22939;SDS011;11636;52.086;5.090;2022-12-29T05:00:03;8.02;;;1.33;;
22939;SDS011;11636;52.086;5.090;2022-12-29T05:02:43;10.55;;;1.60;;
22939;SDS011;11636;52.086;5.090;2022-12-29T05:05:11;11.32;;;1.95;;
22939;SDS011;11636;52.086;5.090;2022-12-29T05:07:45;10.52;;;1.70;;
22939;SDS011;11636;52.086;5.090;2022-12-29T05:10:18;9.80;;;1.50;;
22939;SDS011;11636;52.086;5.090;2022-12-29T05:12:45;11.88;;;1.83;;
22939;SDS011;11636;52.086;5.090;2022-12-29T05:15:12;13.88;;;1.98;;
22939;SDS011;11636;52.086;5.090;2022-12-29T05:17:46;9.63;;;1.85;;
22939;SDS011;11636;52.086;5.090;2022-12-29T05:20:13;11.70;;;1.73;;
22939;SDS011;11636;52.086;5.090;2022-12-29T05:22:45;15.65;;;1.88;;
22939;SDS011;11636;52.086;5.090;2022-12-29T05:25:19;9.20;;;1.58;;
22939;SDS011;11636;52.086;5.090;2022-12-29T05:27:52;12.05;;;2.03;;
22939;SDS011;11636;52.086;5.090;2022-12-29T05:30:19;17.45;;;2.28;;
22939;SDS011;11636;52.086;5.090;2022-12-29T05:32:46;12.15;;;2.30;;
22939;SDS011;11636;52.086;5.090;2022-12-29T05:35:19;9.48;;;1.65;;
22939;SDS011;11636;52.086;5.090;2022-12-29T05:37:46;12.55;;;1.73;;
22939;SDS011;11636;52.086;5.090;2022-12-29T05:40:19;10.52;;;2.05;;
22939;SDS011;11636;52.086;5.090;2022-12-29T05:42:46;9.25;;;1.88;;
22939;SDS011;11636;52.086;5.090;2022-12-29T05:45:13;14.32;;;2.38;;
22939;SDS011;11636;52.086;5.090;2022-12-29T05:47:47;11.30;;;1.92;;
22939;SDS011;11636;52.086;5.090;2022-12-29T05:50:13;13.43;;;2.10;;
22939;SDS011;11636;52.086;5.090;2022-12-29T05:52:45;15.60;;;2.33;;
22939;SDS011;11636;52.086;5.090;2022-12-29T05:55:19;16.48;;;2.40;;
22939;SDS011;11636;52.086;5.090;2022-12-29T05:57:46;12.93;;;1.95;;
22939;SDS011;11636;52.086;5.090;2022-12-29T06:00:13;13.32;;;2.33;;
22939;SDS011;11636;52.086;5.090;2022-12-29T06:02:47;13.55;;;2.55;;
22939;SDS011;11636;52.086;5.090;2022-12-29T06:05:14;15.40;;;2.38;;
22939;SDS011;11636;52.086;5.090;2022-12-29T06:07:42;14.15;;;2.45;;
22939;SDS011;11636;52.086;5.090;2022-12-29T06:10:15;13.82;;;2.25;;
22939;SDS011;11636;52.086;5.090;2022-12-29T06:12:48;13.80;;;2.95;;
22939;SDS011;11636;52.086;5.090;2022-12-29T06:15:22;17.38;;;2.45;;
22939;SDS011;11636;52.086;5.090;2022-12-29T06:17:49;15.07;;;2.38;;
22939;SDS011;11636;52.086;5.090;2022-12-29T06:20:16;15.20;;;2.33;;
22939;SDS011;11636;52.086;5.090;2022-12-29T06:22:49;13.32;;;2.20;;
22939;SDS011;11636;52.086;5.090;2022-12-29T06:25:16;18.25;;;2.10;;
22939;SDS011;11636;52.086;5.090;2022-12-29T06:32:52;18.38;;;2.72;;
22939;SDS011;11636;52.086;5.090;2022-12-29T06:35:27;15.15;;;2.40;;
22939;SDS011;11636;52.086;5.090;2022-12-29T06:38:01;15.80;;;2.20;;
22939;SDS011;11636;52.086;5.090;2022-12-29T06:40:28;16.02;;;2.50;;
22939;SDS011;11636;52.086;5.090;2022-12-29T06:42:55;17.95;;;2.42;;
22939;SDS011;11636;52.086;5.090;2022-12-29T06:45:28;12.13;;;2.30;;
22939;SDS011;11636;52.086;5.090;2022-12-29T06:48:00;13.40;;;2.05;;
22939;SDS011;11636;52.086;5.090;2022-12-29T06:50:27;12.88;;;2.28;;
22939;SDS011;11636;52.086;5.090;2022-12-29T06:53:00;17.77;;;2.28;;
22939;SDS011;11636;52.086;5.090;2022-12-29T06:55:27;18.90;;;2.25;;
22939;SDS011;11636;52.086;5.090;2022-12-29T06:57:57;18.30;;;2.72;;
22939;SDS011;11636;52.086;5.090;2022-12-29T07:00:31;16.05;;;2.22;;
22939;SDS011;11636;52.086;5.090;2022-12-29T07:02:58;11.05;;;2.10;;
22939;SDS011;11636;52.086;5.090;2022-12-29T07:05:31;14.15;;;2.17;;
22939;SDS011;11636;52.086;5.090;2022-12-29T07:07:58;12.25;;;2.40;;
22939;SDS011;11636;52.086;5.090;2022-12-29T07:10:33;11.52;;;2.20;;
22939;SDS011;11636;52.086;5.090;2022-12-29T07:13:06;8.25;;;1.55;;
22939;SDS011;11636;52.086;5.090;2022-12-29T07:15:34;7.28;;;1.60;;
22939;SDS011;11636;52.086;5.090;2022-12-29T07:18:03;8.70;;;1.77;;
22939;SDS011;11636;52.086;5.090;2022-12-29T07:20:37;8.50;;;2.22;;
22939;SDS011;11636;52.086;5.090;2022-12-29T07:23:04;10.18;;;1.55;;
22939;SDS011;11636;52.086;5.090;2022-12-29T07:25:37;10.95;;;2.25;;
22939;SDS011;11636;52.086;5.090;2022-12-29T07:28:04;8.93;;;1.58;;
22939;SDS011;11636;52.086;5.090;2022-12-29T07:30:37;10.32;;;1.70;;
22939;SDS011;11636;52.086;5.090;2022-12-29T07:33:12;13.05;;;1.90;;
22939;SDS011;11636;52.086;5.090;2022-12-29T07:35:39;11.75;;;2.17;;
22939;SDS011;11636;52.086;5.090;2022-12-29T07:38:07;13.18;;;2.20;;
22939;SDS011;11636;52.086;5.090;2022-12-29T07:40:42;10.02;;;2.00;;
22939;SDS011;11636;52.086;5.090;2022-12-29T07:43:09;9.45;;;1.80;;
22939;SDS011;11636;52.086;5.090;2022-12-29T07:45:36;14.43;;;2.20;;
22939;SDS011;11636;52.086;5.090;2022-12-29T07:48:09;12.18;;;2.22;;
22939;SDS011;11636;52.086;5.090;2022-12-29T07:50:42;12.80;;;1.92;;
22939;SDS011;11636;52.086;5.090;2022-12-29T07:53:16;11.65;;;2.80;;
22939;SDS011;11636;52.086;5.090;2022-12-29T07:55:49;17.88;;;2.67;;
22939;SDS011;11636;52.086;5.090;2022-12-29T07:58:16;13.75;;;2.45;;
22939;SDS011;11636;52.086;5.090;2022-12-29T08:00:44;15.35;;;2.28;;
22939;SDS011;11636;52.086;5.090;2022-12-29T08:03:18;14.10;;;2.08;;
22939;SDS011;11636;52.086;5.090;2022-12-29T08:05:45;16.08;;;2.22;;
22939;SDS011;11636;52.086;5.090;2022-12-29T08:08:12;12.90;;;2.33;;
22939;SDS011;11636;52.086;5.090;2022-12-29T08:10:46;10.32;;;2.13;;
22939;SDS011;11636;52.086;5.090;2022-12-29T08:13:13;13.80;;;2.42;;
22939;SDS011;11636;52.086;5.090;2022-12-29T08:15:40;15.48;;;2.17;;
22939;SDS011;11636;52.086;5.090;2022-12-29T08:18:13;15.88;;;2.60;;
22939;SDS011;11636;52.086;5.090;2022-12-29T08:20:47;17.38;;;2.17;;
22939;SDS011;11636;52.086;5.090;2022-12-29T08:23:20;10.07;;;2.40;;
22939;SDS011;11636;52.086;5.090;2022-12-29T08:26:02;11.00;;;2.00;;
22939;SDS011;11636;52.086;5.090;2022-12-29T08:28:30;12.23;;;2.08;;
22939;SDS011;11636;52.086;5.090;2022-12-29T08:31:10;16.05;;;2.30;;
22939;SDS011;11636;52.086;5.090;2022-12-29T08:33:37;15.15;;;2.53;;
22939;SDS011;11636;52.086;5.090;2022-12-29T08:36:06;14.57;;;2.45;;
22939;SDS011;11636;52.086;5.090;2022-12-29T08:38:40;10.98;;;2.20;;
22939;SDS011;11636;52.086;5.090;2022-12-29T08:41:07;14.38;;;2.72;;
22939;SDS011;11636;52.086;5.090;2022-12-29T08:43:34;20.15;;;2.55;;
22939;SDS011;11636;52.086;5.090;2022-12-29T08:46:07;22.88;;;3.10;;
22939;SDS011;11636;52.086;5.090;2022-12-29T08:48:34;13.43;;;2.30;;
22939;SDS011;11636;52.086;5.090;2022-12-29T08:51:01;15.55;;;2.40;;
22939;SDS011;11636;52.086;5.090;2022-12-29T08:53:34;15.52;;;2.45;;
22939;SDS011;11636;52.086;5.090;2022-12-29T08:56:01;17.35;;;2.88;;
22939;SDS011;11636;52.086;5.090;2022-12-29T08:58:31;13.38;;;2.90;;
22939;SDS011;11636;52.086;5.090;2022-12-29T09:01:05;14.18;;;2.40;;
22939;SDS011;11636;52.086;5.090;2022-12-29T09:03:32;15.27;;;2.22;;
22939;SDS011;11636;52.086;5.090;2022-12-29T09:06:25;12.55;;;2.10;;
22939;SDS011;11636;52.086;5.090;2022-12-29T09:08:53;13.75;;;2.20;;
22939;SDS011;11636;52.086;5.090;2022-12-29T09:11:27;11.95;;;2.20;;
22939;SDS011;11636;52.086;5.090;2022-12-29T09:14:00;18.55;;;2.92;;
22939;SDS011;11636;52.086;5.090;2022-12-29T09:16:34;13.40;;;2.35;;
22939;SDS011;11636;52.086;5.090;2022-12-29T09:19:01;15.93;;;2.78;;
22939;SDS011;11636;52.086;5.090;2022-12-29T09:21:29;12.00;;;2.33;;
22939;SDS011;11636;52.086;5.090;2022-12-29T09:24:03;16.95;;;2.78;;
22939;SDS011;11636;52.086;5.090;2022-12-29T09:26:37;11.52;;;1.98;;
22939;SDS011;11636;52.086;5.090;2022-12-29T09:29:12;11.48;;;2.08;;
22939;SDS011;11636;52.086;5.090;2022-12-29T09:31:39;11.73;;;1.88;;
22939;SDS011;11636;52.086;5.090;2022-12-29T09:34:06;12.63;;;2.15;;
22939;SDS011;11636;52.086;5.090;2022-12-29T09:36:39;11.88;;;1.75;;
22939;SDS011;11636;52.086;5.090;2022-12-29T09:39:07;15.52;;;2.53;;
22939;SDS011;11636;52.086;5.090;2022-12-29T09:41:43;12.73;;;2.25;;
22939;SDS011;11636;52.086;5.090;2022-12-29T09:44:44;10.13;;;1.77;;
22939;SDS011;11636;52.086;5.090;2022-12-29T09:47:28;13.75;;;2.28;;
22939;SDS011;11636;52.086;5.090;2022-12-29T09:49:56;9.18;;;1.75;;
22939;SDS011;11636;52.086;5.090;2022-12-29T09:55:09;12.10;;;2.35;;
22939;SDS011;11636;52.086;5.090;2022-12-29T10:00:39;10.68;;;1.65;;
22939;SDS011;11636;52.086;5.090;2022-12-29T10:03:45;8.20;;;1.80;;
22939;SDS011;11636;52.086;5.090;2022-12-29T10:06:44;11.73;;;1.98;;
22939;SDS011;11636;52.086;5.090;2022-12-29T10:23:27;10.70;;;2.00;;
22939;SDS011;11636;52.086;5.090;2022-12-29T10:25:58;13.30;;;1.80;;
22939;SDS011;11636;52.086;5.090;2022-12-29T10:28:43;9.75;;;2.03;;
22939;SDS011;11636;52.086;5.090;2022-12-29T10:31:24;13.43;;;2.38;;
22939;SDS011;11636;52.086;5.090;2022-12-29T10:34:03;13.27;;;2.63;;
22939;SDS011;11636;52.086;5.090;2022-12-29T10:36:40;15.75;;;2.67;;
22939;SDS011;11636;52.086;5.090;2022-12-29T10:45:12;21.20;;;3.63;;
22939;SDS011;11636;52.086;5.090;2022-12-29T10:47:54;21.58;;;4.13;;
22939;SDS011;11636;52.086;5.090;2022-12-29T10:50:32;16.20;;;3.27;;
22939;SDS011;11636;52.086;5.090;2022-12-29T10:53:01;27.05;;;5.05;;
22939;SDS011;11636;52.086;5.090;2022-12-29T10:55:35;20.70;;;4.07;;
22939;SDS011;11636;52.086;5.090;2022-12-29T10:58:11;23.10;;;3.78;;
22939;SDS011;11636;52.086;5.090;2022-12-29T11:00:40;24.50;;;4.60;;
22939;SDS011;11636;52.086;5.090;2022-12-29T11:06:21;17.55;;;3.53;;
22939;SDS011;11636;52.086;5.090;2022-12-29T11:08:57;19.73;;;4.22;;
22939;SDS011;11636;52.086;5.090;2022-12-29T11:11:34;20.33;;;3.90;;
22939;SDS011;11636;52.086;5.090;2022-12-29T11:16:59;19.60;;;3.40;;
22939;SDS011;11636;52.086;5.090;2022-12-29T11:19:28;21.05;;;4.20;;
22939;SDS011;11636;52.086;5.090;2022-12-29T11:22:27;19.92;;;3.72;;
22939;SDS011;11636;52.086;5.090;2022-12-29T11:25:06;22.48;;;3.85;;
22939;SDS011;11636;52.086;5.090;2022-12-29T11:27:38;20.42;;;3.90;;
22939;SDS011;11636;52.086;5.090;2022-12-29T11:30:23;23.45;;;4.63;;
22939;SDS011;11636;52.086;5.090;2022-12-29T11:32:51;18.63;;;4.05;;
22939;SDS011;11636;52.086;5.090;2022-12-29T11:35:30;15.15;;;3.72;;
22939;SDS011;11636;52.086;5.090;2022-12-29T11:38:20;16.70;;;4.00;;
22939;SDS011;11636;52.086;5.090;2022-12-29T11:40:49;21.40;;;3.85;;
22939;SDS011;11636;52.086;5.090;2022-12-29T11:43:32;23.40;;;4.18;;
22939;SDS011;11636;52.086;5.090;2022-12-29T11:46:04;30.15;;;3.88;;
22939;SDS011;11636;52.086;5.090;2022-12-29T11:48:39;19.73;;;4.13;;
22939;SDS011;11636;52.086;5.090;2022-12-29T11:51:08;25.17;;;4.57;;
22939;SDS011;11636;52.086;5.090;2022-12-29T11:53:45;23.63;;;4.82;;
22939;SDS011;11636;52.086;5.090;2022-12-29T11:56:33;24.55;;;4.07;;
22939;SDS011;11636;52.086;5.090;2022-12-29T12:02:15;25.65;;;5.10;;
22939;SDS011;11636;52.086;5.090;2022-12-29T12:08:17;19.33;;;3.70;;
22939;SDS011;11636;52.086;5.090;2022-12-29T12:11:38;21.85;;;3.88;;
22939;SDS011;11636;52.086;5.090;2022-12-29T12:14:11;21.63;;;3.83;;
22939;SDS011;11636;52.086;5.090;2022-12-29T12:16:47;26.77;;;4.35;;
22939;SDS011;11636;52.086;5.090;2022-12-29T12:19:36;20.85;;;3.63;;
22939;SDS011;11636;52.086;5.090;2022-12-29T12:25:16;19.60;;;3.95;;
22939;SDS011;11636;52.086;5.090;2022-12-29T12:28:01;22.48;;;4.10;;
22939;SDS011;11636;52.086;5.090;2022-12-29T12:30:48;18.90;;;4.22;;
22939;SDS011;11636;52.086;5.090;2022-12-29T12:33:27;23.52;;;3.85;;
22939;SDS011;11636;52.086;5.090;2022-12-29T12:44:36;22.02;;;3.53;;
22939;SDS011;11636;52.086;5.090;2022-12-29T12:47:23;19.35;;;4.38;;
22939;SDS011;11636;52.086;5.090;2022-12-29T12:56:14;15.68;;;3.60;;
22939;SDS011;11636;52.086;5.090;2022-12-29T13:13:38;15.70;;;3.00;;
22939;SDS011;11636;52.086;5.090;2022-12-29T13:21:54;18.70;;;3.13;;
22939;SDS011;11636;52.086;5.090;2022-12-29T13:30:19;16.42;;;3.13;;
22939;SDS011;11636;52.086;5.090;2022-12-29T13:33:12;15.77;;;3.45;;
22939;SDS011;11636;52.086;5.090;2022-12-29T13:36:07;18.20;;;3.17;;
22939;SDS011;11636;52.086;5.090;2022-12-29T13:38:43;16.77;;;3.38;;
22939;SDS011;11636;52.086;5.090;2022-12-29T13:41:30;13.32;;;2.70;;
22939;SDS011;11636;52.086;5.090;2022-12-29T13:44:01;20.23;;;3.78;;
22939;SDS011;11636;52.086;5.090;2022-12-29T13:46:39;25.35;;;4.40;;
22939;SDS011;11636;52.086;5.090;2022-12-29T13:51:49;18.77;;;3.78;;
22939;SDS011;11636;52.086;5.090;2022-12-29T13:59:57;10.25;;;2.20;;
22939;SDS011;11636;52.086;5.090;2022-12-29T14:05:36;9.90;;;1.88;;
22939;SDS011;11636;52.086;5.090;2022-12-29T14:08:15;9.98;;;1.70;;
22939;SDS011;11636;52.086;5.090;2022-12-29T14:10:51;6.95;;;1.40;;
22939;SDS011;11636;52.086;5.090;2022-12-29T14:13:22;9.55;;;1.77;;
22939;SDS011;11636;52.086;5.090;2022-12-29T14:15:58;10.45;;;1.88;;
22939;SDS011;11636;52.086;5.090;2022-12-29T14:18:32;5.68;;;1.30;;
22939;SDS011;11636;52.086;5.090;2022-12-29T14:31:57;5.47;;;1.20;;
22939;SDS011;11636;52.086;5.090;2022-12-29T14:34:30;7.15;;;1.65;;
22939;SDS011;11636;52.086;5.090;2022-12-29T14:42:44;9.85;;;1.85;;
22939;SDS011;11636;52.086;5.090;2022-12-29T14:47:52;10.85;;;2.20;;
22939;SDS011;11636;52.086;5.090;2022-12-29T14:50:43;14.70;;;2.42;;
22939;SDS011;11636;52.086;5.090;2022-12-29T14:56:16;11.02;;;2.00;;
22939;SDS011;11636;52.086;5.090;2022-12-29T15:01:38;14.32;;;2.55;;
22939;SDS011;11636;52.086;5.090;2022-12-29T15:06:58;10.95;;;2.13;;
22939;SDS011;11636;52.086;5.090;2022-12-29T15:09:31;14.93;;;2.35;;
22939;SDS011;11636;52.086;5.090;2022-12-29T15:14:52;7.72;;;1.95;;
22939;SDS011;11636;52.086;5.090;2022-12-29T15:17:32;12.35;;;1.98;;
22939;SDS011;11636;52.086;5.090;2022-12-29T15:20:14;10.77;;;2.05;;
22939;SDS011;11636;52.086;5.090;2022-12-29T15:23:12;12.88;;;2.35;;
22939;SDS011;11636;52.086;5.090;2022-12-29T15:25:51;14.05;;;2.28;;
22939;SDS011;11636;52.086;5.090;2022-12-29T15:28:26;10.32;;;2.03;;
22939;SDS011;11636;52.086;5.090;2022-12-29T15:31:19;16.77;;;2.83;;
22939;SDS011;11636;52.086;5.090;2022-12-29T15:34:07;13.05;;;2.40;;
22939;SDS011;11636;52.086;5.090;2022-12-29T15:36:44;7.78;;;2.13;;
22939;SDS011;11636;52.086;5.090;2022-12-29T15:39:20;12.23;;;2.53;;
22939;SDS011;11636;52.086;5.090;2022-12-29T15:42:03;11.77;;;2.05;;
22939;SDS011;11636;52.086;5.090;2022-12-29T15:44:41;8.70;;;2.35;;
22939;SDS011;11636;52.086;5.090;2022-12-29T15:47:29;9.15;;;2.60;;
22939;SDS011;11636;52.086;5.090;2022-12-29T15:50:07;18.48;;;6.63;;
22939;SDS011;11636;52.086;5.090;2022-12-29T15:52:48;10.98;;;2.22;;
22939;SDS011;11636;52.086;5.090;2022-12-29T15:55:19;10.88;;;1.88;;
22939;SDS011;11636;52.086;5.090;2022-12-29T15:58:01;11.57;;;2.15;;
22939;SDS011;11636;52.086;5.090;2022-12-29T16:00:36;15.60;;;2.53;;
22939;SDS011;11636;52.086;5.090;2022-12-29T16:03:10;10.23;;;1.90;;
22939;SDS011;11636;52.086;5.090;2022-12-29T16:05:54;8.75;;;1.92;;
22939;SDS011;11636;52.086;5.090;2022-12-29T16:08:46;14.85;;;2.63;;
22939;SDS011;11636;52.086;5.090;2022-12-29T16:11:33;11.65;;;2.15;;
22939;SDS011;11636;52.086;5.090;2022-12-29T16:14:06;9.63;;;2.20;;
22939;SDS011;11636;52.086;5.090;2022-12-29T16:16:43;12.05;;;2.10;;
22939;SDS011;11636;52.086;5.090;2022-12-29T16:19:19;12.48;;;2.20;;
22939;SDS011;11636;52.086;5.090;2022-12-29T16:22:00;8.07;;;1.50;;
22939;SDS011;11636;52.086;5.090;2022-12-29T16:24:30;7.70;;;1.92;;
22939;SDS011;11636;52.086;5.090;2022-12-29T16:30:04;14.65;;;3.55;;
22939;SDS011;11636;52.086;5.090;2022-12-29T16:32:48;9.13;;;2.78;;
22939;SDS011;11636;52.086;5.090;2022-12-29T16:35:21;7.35;;;1.83;;
22939;SDS011;11636;52.086;5.090;2022-12-29T16:41:04;10.55;;;1.50;;
22939;SDS011;11636;52.086;5.090;2022-12-29T16:43:32;8.80;;;2.10;;
22939;SDS011;11636;52.086;5.090;2022-12-29T16:48:45;9.35;;;2.40;;
22939;SDS011;11636;52.086;5.090;2022-12-29T16:51:32;7.15;;;1.60;;
22939;SDS011;11636;52.086;5.090;2022-12-29T16:54:02;8.85;;;1.70;;
22939;SDS011;11636;52.086;5.090;2022-12-29T16:56:37;11.68;;;2.08;;
22939;SDS011;11636;52.086;5.090;2022-12-29T17:01:58;14.02;;;1.90;;
22939;SDS011;11636;52.086;5.090;2022-12-29T17:04:28;10.63;;;2.00;;
22939;SDS011;11636;52.086;5.090;2022-12-29T17:07:12;9.93;;;1.85;;
22939;SDS011;11636;52.086;5.090;2022-12-29T17:09:50;11.30;;;2.05;;
22939;SDS011;11636;52.086;5.090;2022-12-29T17:12:21;10.30;;;1.75;;
22939;SDS011;11636;52.086;5.090;2022-12-29T17:17:42;10.95;;;2.20;;
22939;SDS011;11636;52.086;5.090;2022-12-29T17:20:15;12.27;;;2.45;;
22939;SDS011;11636;52.086;5.090;2022-12-29T17:23:11;9.93;;;2.22;;
22939;SDS011;11636;52.086;5.090;2022-12-29T17:25:47;11.65;;;2.25;;
22939;SDS011;11636;52.086;5.090;2022-12-29T17:28:22;14.80;;;2.47;;
22939;SDS011;11636;52.086;5.090;2022-12-29T17:31:02;13.10;;;2.15;;
22939;SDS011;11636;52.086;5.090;2022-12-29T17:33:35;13.05;;;2.20;;
22939;SDS011;11636;52.086;5.090;2022-12-29T17:36:10;15.57;;;2.50;;
22939;SDS011;11636;52.086;5.090;2022-12-29T17:38:37;12.57;;;2.15;;
22939;SDS011;11636;52.086;5.090;2022-12-29T17:41:11;14.50;;;3.00;;
22939;SDS011;11636;52.086;5.090;2022-12-29T17:43:46;13.95;;;3.13;;
22939;SDS011;11636;52.086;5.090;2022-12-29T17:46:13;13.98;;;2.65;;
22939;SDS011;11636;52.086;5.090;2022-12-29T17:48:47;10.55;;;2.28;;
22939;SDS011;11636;52.086;5.090;2022-12-29T17:51:28;12.32;;;2.28;;
22939;SDS011;11636;52.086;5.090;2022-12-29T17:53:55;15.25;;;2.60;;
22939;SDS011;11636;52.086;5.090;2022-12-29T17:56:29;11.95;;;2.15;;
22939;SDS011;11636;52.086;5.090;2022-12-29T17:58:57;13.57;;;2.40;;
22939;SDS011;11636;52.086;5.090;2022-12-29T18:01:25;17.10;;;2.35;;
22939;SDS011;11636;52.086;5.090;2022-12-29T18:04:05;15.75;;;2.83;;
22939;SDS011;11636;52.086;5.090;2022-12-29T18:06:38;14.20;;;3.05;;
22939;SDS011;11636;52.086;5.090;2022-12-29T18:09:05;14.80;;;2.67;;
22939;SDS011;11636;52.086;5.090;2022-12-29T18:11:42;15.60;;;3.25;;
22939;SDS011;11636;52.086;5.090;2022-12-29T18:14:13;26.83;;;10.98;;
22939;SDS011;11636;52.086;5.090;2022-12-29T18:16:48;16.20;;;2.85;;
22939;SDS011;11636;52.086;5.090;2022-12-29T18:19:15;13.68;;;2.92;;
22939;SDS011;11636;52.086;5.090;2022-12-29T18:21:49;14.88;;;2.60;;
22939;SDS011;11636;52.086;5.090;2022-12-29T18:24:16;16.40;;;3.15;;
22939;SDS011;11636;52.086;5.090;2022-12-29T18:26:49;14.70;;;3.03;;
22939;SDS011;11636;52.086;5.090;2022-12-29T18:29:22;21.38;;;3.40;;
22939;SDS011;11636;52.086;5.090;2022-12-29T18:31:49;15.25;;;2.47;;
22939;SDS011;11636;52.086;5.090;2022-12-29T18:34:22;14.27;;;3.38;;